sensor_id;sensor_type;location;lat;lon;timestamp;P1;durP1;ratioP1;P2;durP2;ratioP2
59653;SDS011;66556;52.008;5.432;2023-05-02T00:00:55;46.6;;;32.5;;
59653;SDS011;66556;52.008;5.432;2023-05-02T00:04:08;45.1;;;30.8;;
59653;SDS011;66556;52.008;5.432;2023-05-02T00:05:44;46.1;;;31.1;;
59653;SDS011;66556;52.008;5.432;2023-05-02T00:07:20;42.9;;;30.2;;
59653;SDS011;66556;52.008;5.432;2023-05-02T00:10:33;41.3;;;30.1;;
59653;SDS011;66556;52.008;5.432;2023-05-02T00:12:09;43.6;;;30.5;;
59653;SDS011;66556;52.008;5.432;2023-05-02T00:13:45;41.9;;;30.0;;
59653;SDS011;66556;52.008;5.432;2023-05-02T00:16:57;39.0;;;28.9;;
59653;SDS011;66556;52.008;5.432;2023-05-02T00:18:34;41.5;;;29.2;;
59653;SDS011;66556;52.008;5.432;2023-05-02T00:20:10;40.4;;;27.8;;
59653;SDS011;66556;52.008;5.432;2023-05-02T00:21:47;38.31;;;27.8;;
59653;SDS011;66556;52.008;5.432;2023-05-02T00:25:00;41.6;;;27.3;;
59653;SDS011;66556;52.008;5.432;2023-05-02T00:26:36;38.1;;;26.8;;
59653;SDS011;66556;52.008;5.432;2023-05-02T00:28:13;38.4;;;27.4;;
59653;SDS011;66556;52.008;5.432;2023-05-02T00:31:25;36.71;;;26.6;;
59653;SDS011;66556;52.008;5.432;2023-05-02T00:33:01;37.9;;;26.7;;
59653;SDS011;66556;52.008;5.432;2023-05-02T00:34:37;40.4;;;27.0;;
59653;SDS011;66556;52.008;5.432;2023-05-02T00:37:50;36.21;;;26.4;;
59653;SDS011;66556;52.008;5.432;2023-05-02T00:39:27;33.4;;;25.4;;
59653;SDS011;66556;52.008;5.432;2023-05-02T00:41:03;36.6;;;26.0;;
59653;SDS011;66556;52.008;5.432;2023-05-02T00:42:39;36.6;;;26.0;;
59653;SDS011;66556;52.008;5.432;2023-05-02T00:45:51;33.0;;;24.2;;
59653;SDS011;66556;52.008;5.432;2023-05-02T00:47:28;34.21;;;24.6;;
59653;SDS011;66556;52.008;5.432;2023-05-02T00:49:04;30.6;;;22.1;;
59653;SDS011;66556;52.008;5.432;2023-05-02T00:52:18;30.1;;;22.3;;
59653;SDS011;66556;52.008;5.432;2023-05-02T00:53:55;33.21;;;23.5;;
59653;SDS011;66556;52.008;5.432;2023-05-02T00:55:31;32.3;;;23.1;;
59653;SDS011;66556;52.008;5.432;2023-05-02T00:58:43;34.31;;;23.5;;
59653;SDS011;66556;52.008;5.432;2023-05-02T01:00:21;32.5;;;22.7;;
59653;SDS011;66556;52.008;5.432;2023-05-02T01:02:09;34.4;;;22.6;;
59653;SDS011;66556;52.008;5.432;2023-05-02T01:04:08;32.9;;;22.7;;
59653;SDS011;66556;52.008;5.432;2023-05-02T01:05:58;31.9;;;22.4;;
59653;SDS011;66556;52.008;5.432;2023-05-02T01:07:59;29.7;;;21.7;;
59653;SDS011;66556;52.008;5.432;2023-05-02T01:11:38;27.7;;;20.0;;
59653;SDS011;66556;52.008;5.432;2023-05-02T01:13:31;31.6;;;21.1;;
59653;SDS011;66556;52.008;5.432;2023-05-02T01:15:10;30.8;;;21.1;;
59653;SDS011;66556;52.008;5.432;2023-05-02T01:16:51;30.3;;;20.3;;
59653;SDS011;66556;52.008;5.432;2023-05-02T01:18:29;29.9;;;20.0;;
59653;SDS011;66556;52.008;5.432;2023-05-02T01:21:51;26.3;;;19.2;;
59653;SDS011;66556;52.008;5.432;2023-05-02T01:23:31;29.0;;;19.91;;
59653;SDS011;66556;52.008;5.432;2023-05-02T01:25:18;32.5;;;19.91;;
59653;SDS011;66556;52.008;5.432;2023-05-02T01:27:06;28.1;;;19.2;;
59653;SDS011;66556;52.008;5.432;2023-05-02T01:28:54;27.6;;;18.91;;
59653;SDS011;66556;52.008;5.432;2023-05-02T01:32:13;25.2;;;18.2;;
59653;SDS011;66556;52.008;5.432;2023-05-02T01:33:50;26.0;;;16.9;;
59653;SDS011;66556;52.008;5.432;2023-05-02T01:35:29;24.1;;;15.5;;
59653;SDS011;66556;52.008;5.432;2023-05-02T01:37:07;25.6;;;14.8;;
59653;SDS011;66556;52.008;5.432;2023-05-02T01:40:26;24.5;;;14.8;;
59653;SDS011;66556;52.008;5.432;2023-05-02T01:42:03;22.4;;;14.4;;
59653;SDS011;66556;52.008;5.432;2023-05-02T01:43:39;20.11;;;13.3;;
59653;SDS011;66556;52.008;5.432;2023-05-02T01:46:56;23.5;;;12.9;;
59653;SDS011;66556;52.008;5.432;2023-05-02T01:48:35;21.2;;;11.6;;
59653;SDS011;66556;52.008;5.432;2023-05-02T01:50:12;17.91;;;9.9;;
59653;SDS011;66556;52.008;5.432;2023-05-02T01:51:53;16.7;;;8.2;;
59653;SDS011;66556;52.008;5.432;2023-05-02T01:55:11;13.5;;;6.3;;
59653;SDS011;66556;52.008;5.432;2023-05-02T01:56:50;14.6;;;5.7;;
59653;SDS011;66556;52.008;5.432;2023-05-02T01:58:27;12.3;;;4.7;;
59653;SDS011;66556;52.008;5.432;2023-05-02T02:00:06;12.2;;;4.61;;
59653;SDS011;66556;52.008;5.432;2023-05-02T02:03:25;11.4;;;4.41;;
59653;SDS011;66556;52.008;5.432;2023-05-02T02:05:03;11.3;;;4.0;;
59653;SDS011;66556;52.008;5.432;2023-05-02T02:06:43;12.4;;;4.0;;
59653;SDS011;66556;52.008;5.432;2023-05-02T02:08:33;12.4;;;4.0;;
59653;SDS011;66556;52.008;5.432;2023-05-02T02:11:46;13.5;;;4.2;;
59653;SDS011;66556;52.008;5.432;2023-05-02T02:13:29;15.3;;;4.0;;
59653;SDS011;66556;52.008;5.432;2023-05-02T02:15:14;15.1;;;3.8;;
59653;SDS011;66556;52.008;5.432;2023-05-02T02:16:56;15.2;;;3.6;;
59653;SDS011;66556;52.008;5.432;2023-05-02T02:20:14;16.5;;;4.2;;
59653;SDS011;66556;52.008;5.432;2023-05-02T02:21:51;16.2;;;3.8;;
59653;SDS011;66556;52.008;5.432;2023-05-02T02:23:30;18.11;;;3.9;;
59653;SDS011;66556;52.008;5.432;2023-05-02T02:25:10;15.8;;;3.5;;
59653;SDS011;66556;52.008;5.432;2023-05-02T02:28:26;15.1;;;3.5;;
59653;SDS011;66556;52.008;5.432;2023-05-02T02:30:02;15.0;;;3.5;;
59653;SDS011;66556;52.008;5.432;2023-05-02T02:31:39;14.0;;;3.5;;
59653;SDS011;66556;52.008;5.432;2023-05-02T02:34:52;13.4;;;3.9;;
59653;SDS011;66556;52.008;5.432;2023-05-02T02:36:30;13.8;;;3.7;;
59653;SDS011;66556;52.008;5.432;2023-05-02T02:38:13;13.8;;;3.3;;
59653;SDS011;66556;52.008;5.432;2023-05-02T02:39:59;16.9;;;3.9;;
59653;SDS011;66556;52.008;5.432;2023-05-02T02:43:32;14.5;;;3.7;;
59653;SDS011;66556;52.008;5.432;2023-05-02T02:45:18;11.2;;;3.3;;
59653;SDS011;66556;52.008;5.432;2023-05-02T02:47:05;10.4;;;3.0;;
59653;SDS011;66556;52.008;5.432;2023-05-02T02:49:00;11.2;;;3.2;;
59653;SDS011;66556;52.008;5.432;2023-05-02T02:50:53;13.7;;;3.4;;
59653;SDS011;66556;52.008;5.432;2023-05-02T02:52:41;10.3;;;2.5;;
59653;SDS011;66556;52.008;5.432;2023-05-02T02:54:28;15.3;;;3.1;;
59653;SDS011;66556;52.008;5.432;2023-05-02T02:57:57;10.7;;;2.9;;
59653;SDS011;66556;52.008;5.432;2023-05-02T02:59:36;11.7;;;2.5;;
59653;SDS011;66556;52.008;5.432;2023-05-02T03:01:21;9.0;;;2.1;;
59653;SDS011;66556;52.008;5.432;2023-05-02T03:03:01;7.6;;;1.9;;
59653;SDS011;66556;52.008;5.432;2023-05-02T03:06:16;10.21;;;2.5;;
59653;SDS011;66556;52.008;5.432;2023-05-02T03:07:54;9.5;;;2.21;;
59653;SDS011;66556;52.008;5.432;2023-05-02T03:09:39;14.4;;;2.4;;
59653;SDS011;66556;52.008;5.432;2023-05-02T03:11:15;9.9;;;2.1;;
59653;SDS011;66556;52.008;5.432;2023-05-02T03:14:27;9.1;;;2.5;;
59653;SDS011;66556;52.008;5.432;2023-05-02T03:16:35;10.21;;;2.1;;
59653;SDS011;66556;52.008;5.432;2023-05-02T03:18:23;8.6;;;2.4;;
59653;SDS011;66556;52.008;5.432;2023-05-02T03:19:59;8.4;;;2.31;;
59653;SDS011;66556;52.008;5.432;2023-05-02T03:21:35;9.0;;;2.1;;
59653;SDS011;66556;52.008;5.432;2023-05-02T03:24:47;8.81;;;2.1;;
59653;SDS011;66556;52.008;5.432;2023-05-02T03:26:24;10.5;;;2.21;;
59653;SDS011;66556;52.008;5.432;2023-05-02T03:28:00;8.4;;;2.1;;
59653;SDS011;66556;52.008;5.432;2023-05-02T03:31:12;9.21;;;2.1;;
59653;SDS011;66556;52.008;5.432;2023-05-02T03:32:50;8.71;;;2.31;;
59653;SDS011;66556;52.008;5.432;2023-05-02T03:34:26;7.4;;;1.8;;
59653;SDS011;66556;52.008;5.432;2023-05-02T03:37:39;8.4;;;1.9;;
59653;SDS011;66556;52.008;5.432;2023-05-02T03:39:15;10.5;;;2.31;;
59653;SDS011;66556;52.008;5.432;2023-05-02T03:40:51;7.5;;;2.1;;
59653;SDS011;66556;52.008;5.432;2023-05-02T03:44:03;7.4;;;2.21;;
59653;SDS011;66556;52.008;5.432;2023-05-02T03:45:39;6.6;;;2.1;;
59653;SDS011;66556;52.008;5.432;2023-05-02T03:47:16;8.81;;;2.31;;
59653;SDS011;66556;52.008;5.432;2023-05-02T03:48:52;10.8;;;2.1;;
59653;SDS011;66556;52.008;5.432;2023-05-02T03:52:04;7.4;;;2.0;;
59653;SDS011;66556;52.008;5.432;2023-05-02T03:53:40;10.8;;;2.4;;
59653;SDS011;66556;52.008;5.432;2023-05-02T03:55:16;10.21;;;2.21;;
59653;SDS011;66556;52.008;5.432;2023-05-02T03:58:29;10.3;;;2.6;;
59653;SDS011;66556;52.008;5.432;2023-05-02T04:00:06;10.9;;;2.31;;
59653;SDS011;66556;52.008;5.432;2023-05-02T04:01:43;10.0;;;2.4;;
59653;SDS011;66556;52.008;5.432;2023-05-02T04:04:57;9.81;;;2.1;;
59653;SDS011;66556;52.008;5.432;2023-05-02T04:06:33;9.81;;;2.4;;
59653;SDS011;66556;52.008;5.432;2023-05-02T04:08:08;8.71;;;2.5;;
59653;SDS011;66556;52.008;5.432;2023-05-02T04:09:44;9.71;;;2.21;;
59653;SDS011;66556;52.008;5.432;2023-05-02T04:12:57;9.5;;;2.21;;
59653;SDS011;66556;52.008;5.432;2023-05-02T04:14:33;9.1;;;2.4;;
59653;SDS011;66556;52.008;5.432;2023-05-02T04:16:09;7.8;;;2.21;;
59653;SDS011;66556;52.008;5.432;2023-05-02T04:19:21;10.7;;;2.4;;
59653;SDS011;66556;52.008;5.432;2023-05-02T04:20:58;10.7;;;2.21;;
59653;SDS011;66556;52.008;5.432;2023-05-02T04:22:34;11.8;;;2.6;;
59653;SDS011;66556;52.008;5.432;2023-05-02T04:25:51;9.81;;;2.4;;
59653;SDS011;66556;52.008;5.432;2023-05-02T04:27:27;11.7;;;2.8;;
59653;SDS011;66556;52.008;5.432;2023-05-02T04:29:04;15.9;;;3.0;;
59653;SDS011;66556;52.008;5.432;2023-05-02T04:30:40;8.31;;;2.31;;
59653;SDS011;66556;52.008;5.432;2023-05-02T04:33:52;11.3;;;2.8;;
59653;SDS011;66556;52.008;5.432;2023-05-02T04:35:28;12.6;;;2.7;;
59653;SDS011;66556;52.008;5.432;2023-05-02T04:37:05;11.0;;;2.6;;
59653;SDS011;66556;52.008;5.432;2023-05-02T04:40:17;9.1;;;2.5;;
59653;SDS011;66556;52.008;5.432;2023-05-02T04:41:53;13.6;;;2.8;;
59653;SDS011;66556;52.008;5.432;2023-05-02T04:43:29;10.1;;;2.5;;
59653;SDS011;66556;52.008;5.432;2023-05-02T04:46:43;11.3;;;2.7;;
59653;SDS011;66556;52.008;5.432;2023-05-02T04:48:19;12.1;;;2.8;;
59653;SDS011;66556;52.008;5.432;2023-05-02T04:49:55;10.9;;;2.7;;
59653;SDS011;66556;52.008;5.432;2023-05-02T04:53:07;11.4;;;2.6;;
59653;SDS011;66556;52.008;5.432;2023-05-02T04:54:43;12.4;;;2.5;;
59653;SDS011;66556;52.008;5.432;2023-05-02T04:56:19;11.7;;;2.6;;
59653;SDS011;66556;52.008;5.432;2023-05-02T04:57:56;14.5;;;2.9;;
59653;SDS011;66556;52.008;5.432;2023-05-02T05:01:12;12.8;;;2.6;;
59653;SDS011;66556;52.008;5.432;2023-05-02T05:02:48;10.7;;;2.4;;
59653;SDS011;66556;52.008;5.432;2023-05-02T05:04:24;11.2;;;2.5;;
59653;SDS011;66556;52.008;5.432;2023-05-02T05:07:37;11.9;;;2.6;;
59653;SDS011;66556;52.008;5.432;2023-05-02T05:09:13;11.8;;;2.7;;
59653;SDS011;66556;52.008;5.432;2023-05-02T05:10:50;10.21;;;2.6;;
59653;SDS011;66556;52.008;5.432;2023-05-02T05:14:02;11.0;;;2.4;;
59653;SDS011;66556;52.008;5.432;2023-05-02T05:15:38;14.6;;;2.8;;
59653;SDS011;66556;52.008;5.432;2023-05-02T05:17:15;12.3;;;2.8;;
59653;SDS011;66556;52.008;5.432;2023-05-02T05:18:52;11.4;;;2.5;;
59653;SDS011;66556;52.008;5.432;2023-05-02T05:22:04;13.2;;;3.0;;
59653;SDS011;66556;52.008;5.432;2023-05-02T05:23:40;12.6;;;3.0;;
59653;SDS011;66556;52.008;5.432;2023-05-02T05:25:16;17.0;;;3.1;;
59653;SDS011;66556;52.008;5.432;2023-05-02T05:28:29;15.4;;;3.4;;
59653;SDS011;66556;52.008;5.432;2023-05-02T05:30:05;14.8;;;3.2;;
59653;SDS011;66556;52.008;5.432;2023-05-02T05:31:42;16.3;;;3.2;;
59653;SDS011;66556;52.008;5.432;2023-05-02T05:34:54;15.2;;;3.6;;
59653;SDS011;66556;52.008;5.432;2023-05-02T05:36:31;14.1;;;3.6;;
59653;SDS011;66556;52.008;5.432;2023-05-02T05:38:07;15.5;;;3.3;;
59653;SDS011;66556;52.008;5.432;2023-05-02T05:39:43;14.5;;;3.4;;
59653;SDS011;66556;52.008;5.432;2023-05-02T05:42:56;17.2;;;3.8;;
59653;SDS011;66556;52.008;5.432;2023-05-02T05:44:32;18.41;;;3.5;;
59653;SDS011;66556;52.008;5.432;2023-05-02T05:46:09;16.7;;;3.5;;
59653;SDS011;66556;52.008;5.432;2023-05-02T05:49:21;13.8;;;3.1;;
59653;SDS011;66556;52.008;5.432;2023-05-02T05:50:57;16.7;;;3.9;;
59653;SDS011;66556;52.008;5.432;2023-05-02T05:52:38;13.9;;;3.6;;
59653;SDS011;66556;52.008;5.432;2023-05-02T05:55:52;15.1;;;3.3;;
59653;SDS011;66556;52.008;5.432;2023-05-02T05:57:28;17.0;;;3.7;;
59653;SDS011;66556;52.008;5.432;2023-05-02T05:59:04;20.8;;;4.0;;
59653;SDS011;66556;52.008;5.432;2023-05-02T06:00:40;15.0;;;3.7;;
59653;SDS011;66556;52.008;5.432;2023-05-02T06:03:53;15.9;;;3.6;;
59653;SDS011;66556;52.008;5.432;2023-05-02T06:05:29;19.5;;;4.2;;
59653;SDS011;66556;52.008;5.432;2023-05-02T06:07:06;15.4;;;3.8;;
59653;SDS011;66556;52.008;5.432;2023-05-02T06:10:18;15.2;;;3.4;;
59653;SDS011;66556;52.008;5.432;2023-05-02T06:11:54;19.41;;;4.3;;
59653;SDS011;66556;52.008;5.432;2023-05-02T06:13:31;21.7;;;4.5;;
59653;SDS011;66556;52.008;5.432;2023-05-02T06:16:43;19.2;;;4.5;;
59653;SDS011;66556;52.008;5.432;2023-05-02T06:18:19;15.1;;;4.2;;
59653;SDS011;66556;52.008;5.432;2023-05-02T06:19:56;15.2;;;4.0;;
59653;SDS011;66556;52.008;5.432;2023-05-02T06:21:32;18.2;;;4.2;;
59653;SDS011;66556;52.008;5.432;2023-05-02T06:24:44;22.7;;;4.8;;
59653;SDS011;66556;52.008;5.432;2023-05-02T06:26:20;17.3;;;4.7;;
59653;SDS011;66556;52.008;5.432;2023-05-02T06:27:56;17.11;;;4.3;;
59653;SDS011;66556;52.008;5.432;2023-05-02T06:31:09;20.5;;;4.41;;
59653;SDS011;66556;52.008;5.432;2023-05-02T06:32:45;18.91;;;4.0;;
59653;SDS011;66556;52.008;5.432;2023-05-02T06:34:21;18.0;;;4.2;;
59653;SDS011;66556;52.008;5.432;2023-05-02T06:37:33;14.0;;;3.8;;
59653;SDS011;66556;52.008;5.432;2023-05-02T06:39:09;18.41;;;4.3;;
59653;SDS011;66556;52.008;5.432;2023-05-02T06:40:46;20.8;;;4.3;;
59653;SDS011;66556;52.008;5.432;2023-05-02T06:43:59;18.11;;;4.3;;
59653;SDS011;66556;52.008;5.432;2023-05-02T06:45:35;19.41;;;4.1;;
59653;SDS011;66556;52.008;5.432;2023-05-02T06:47:11;15.6;;;3.7;;
59653;SDS011;66556;52.008;5.432;2023-05-02T06:48:47;13.9;;;3.7;;
59653;SDS011;66556;52.008;5.432;2023-05-02T06:52:00;18.2;;;3.5;;
59653;SDS011;66556;52.008;5.432;2023-05-02T06:53:36;15.2;;;3.4;;
59653;SDS011;66556;52.008;5.432;2023-05-02T06:55:12;16.7;;;3.4;;
59653;SDS011;66556;52.008;5.432;2023-05-02T06:58:25;14.1;;;3.2;;
59653;SDS011;66556;52.008;5.432;2023-05-02T07:00:01;16.0;;;3.9;;
59653;SDS011;66556;52.008;5.432;2023-05-02T07:01:37;15.9;;;3.3;;
59653;SDS011;66556;52.008;5.432;2023-05-02T07:04:49;12.5;;;3.3;;
59653;SDS011;66556;52.008;5.432;2023-05-02T07:06:25;13.4;;;3.3;;
59653;SDS011;66556;52.008;5.432;2023-05-02T07:08:01;12.5;;;3.3;;
59653;SDS011;66556;52.008;5.432;2023-05-02T07:09:39;13.9;;;3.3;;
59653;SDS011;66556;52.008;5.432;2023-05-02T07:12:51;13.9;;;3.3;;
59653;SDS011;66556;52.008;5.432;2023-05-02T07:14:27;16.11;;;3.3;;
59653;SDS011;66556;52.008;5.432;2023-05-02T07:16:04;9.4;;;2.8;;
59653;SDS011;66556;52.008;5.432;2023-05-02T07:19:18;12.6;;;3.1;;
59653;SDS011;66556;52.008;5.432;2023-05-02T07:20:55;13.5;;;3.4;;
59653;SDS011;66556;52.008;5.432;2023-05-02T07:22:31;12.2;;;3.1;;
59653;SDS011;66556;52.008;5.432;2023-05-02T07:25:43;17.11;;;2.7;;
59653;SDS011;66556;52.008;5.432;2023-05-02T07:27:19;13.4;;;3.1;;
59653;SDS011;66556;52.008;5.432;2023-05-02T07:28:56;9.81;;;2.5;;
59653;SDS011;66556;52.008;5.432;2023-05-02T07:30:32;14.6;;;3.0;;
59653;SDS011;66556;52.008;5.432;2023-05-02T07:33:44;14.0;;;3.0;;
59653;SDS011;66556;52.008;5.432;2023-05-02T07:35:20;16.5;;;3.3;;
59653;SDS011;66556;52.008;5.432;2023-05-02T07:36:56;15.3;;;3.3;;
59653;SDS011;66556;52.008;5.432;2023-05-02T07:40:10;13.3;;;3.2;;
59653;SDS011;66556;52.008;5.432;2023-05-02T07:41:46;15.3;;;3.5;;
59653;SDS011;66556;52.008;5.432;2023-05-02T07:43:22;12.8;;;3.2;;
59653;SDS011;66556;52.008;5.432;2023-05-02T07:46:34;10.7;;;3.0;;
59653;SDS011;66556;52.008;5.432;2023-05-02T07:48:11;12.9;;;3.2;;
59653;SDS011;66556;52.008;5.432;2023-05-02T07:49:49;17.3;;;3.4;;
59653;SDS011;66556;52.008;5.432;2023-05-02T07:53:01;13.7;;;3.4;;
59653;SDS011;66556;52.008;5.432;2023-05-02T07:54:37;19.3;;;3.6;;
59653;SDS011;66556;52.008;5.432;2023-05-02T07:56:14;16.4;;;3.6;;
59653;SDS011;66556;52.008;5.432;2023-05-02T07:57:50;16.3;;;3.5;;
59653;SDS011;66556;52.008;5.432;2023-05-02T08:01:02;13.6;;;3.3;;
59653;SDS011;66556;52.008;5.432;2023-05-02T08:02:40;13.0;;;3.1;;
59653;SDS011;66556;52.008;5.432;2023-05-02T08:04:16;17.11;;;3.2;;
59653;SDS011;66556;52.008;5.432;2023-05-02T08:07:30;13.4;;;2.8;;
59653;SDS011;66556;52.008;5.432;2023-05-02T08:09:07;9.0;;;2.6;;
59653;SDS011;66556;52.008;5.432;2023-05-02T08:10:43;12.1;;;2.9;;
59653;SDS011;66556;52.008;5.432;2023-05-02T08:13:55;11.4;;;2.9;;
59653;SDS011;66556;52.008;5.432;2023-05-02T08:15:32;12.1;;;3.3;;
59653;SDS011;66556;52.008;5.432;2023-05-02T08:17:08;14.1;;;3.1;;
59653;SDS011;66556;52.008;5.432;2023-05-02T08:18:44;10.8;;;3.0;;
59653;SDS011;66556;52.008;5.432;2023-05-02T08:21:57;11.1;;;2.6;;
59653;SDS011;66556;52.008;5.432;2023-05-02T08:23:34;11.0;;;3.0;;
59653;SDS011;66556;52.008;5.432;2023-05-02T08:25:09;12.0;;;3.2;;
59653;SDS011;66556;52.008;5.432;2023-05-02T08:28:21;10.6;;;2.9;;
59653;SDS011;66556;52.008;5.432;2023-05-02T08:29:57;10.21;;;2.7;;
59653;SDS011;66556;52.008;5.432;2023-05-02T08:31:33;8.6;;;2.6;;
59653;SDS011;66556;52.008;5.432;2023-05-02T08:34:46;11.2;;;2.9;;
59653;SDS011;66556;52.008;5.432;2023-05-02T08:36:23;12.3;;;2.7;;
59653;SDS011;66556;52.008;5.432;2023-05-02T08:39:35;10.6;;;2.4;;
59653;SDS011;66556;52.008;5.432;2023-05-02T08:42:49;14.1;;;3.2;;
59653;SDS011;66556;52.008;5.432;2023-05-02T08:44:27;11.7;;;2.9;;
59653;SDS011;66556;52.008;5.432;2023-05-02T08:46:03;15.3;;;4.0;;
59653;SDS011;66556;52.008;5.432;2023-05-02T08:49:17;14.4;;;3.9;;
59653;SDS011;66556;52.008;5.432;2023-05-02T08:50:55;15.8;;;2.9;;
59653;SDS011;66556;52.008;5.432;2023-05-02T08:52:34;11.1;;;2.5;;
59653;SDS011;66556;52.008;5.432;2023-05-02T08:55:52;12.8;;;3.1;;
59653;SDS011;66556;52.008;5.432;2023-05-02T08:57:28;10.0;;;2.31;;
59653;SDS011;66556;52.008;5.432;2023-05-02T08:59:05;9.71;;;2.7;;
59653;SDS011;66556;52.008;5.432;2023-05-02T09:00:41;14.3;;;3.0;;
59653;SDS011;66556;52.008;5.432;2023-05-02T09:04:28;12.8;;;2.6;;
59653;SDS011;66556;52.008;5.432;2023-05-02T09:06:09;11.0;;;2.6;;
59653;SDS011;66556;52.008;5.432;2023-05-02T09:07:47;8.9;;;2.4;;
59653;SDS011;66556;52.008;5.432;2023-05-02T09:09:26;10.7;;;2.4;;
59653;SDS011;66556;52.008;5.432;2023-05-02T09:11:02;9.81;;;2.6;;
59653;SDS011;66556;52.008;5.432;2023-05-02T09:14:16;9.1;;;2.6;;
59653;SDS011;66556;52.008;5.432;2023-05-02T09:15:55;6.2;;;2.0;;
59653;SDS011;66556;52.008;5.432;2023-05-02T09:17:37;8.31;;;1.9;;
59653;SDS011;66556;52.008;5.432;2023-05-02T09:21:03;6.8;;;1.9;;
59653;SDS011;66556;52.008;5.432;2023-05-02T09:22:46;7.2;;;1.9;;
59653;SDS011;66556;52.008;5.432;2023-05-02T09:24:23;6.8;;;2.0;;
59653;SDS011;66556;52.008;5.432;2023-05-02T09:26:00;7.5;;;2.1;;
59653;SDS011;66556;52.008;5.432;2023-05-02T09:29:30;8.6;;;2.0;;
59653;SDS011;66556;52.008;5.432;2023-05-02T09:31:09;5.8;;;1.9;;
59653;SDS011;66556;52.008;5.432;2023-05-02T09:32:47;7.9;;;1.9;;
59653;SDS011;66556;52.008;5.432;2023-05-02T09:34:25;9.21;;;2.1;;
59653;SDS011;66556;52.008;5.432;2023-05-02T09:37:38;7.2;;;1.7;;
59653;SDS011;66556;52.008;5.432;2023-05-02T09:39:15;6.5;;;1.9;;
59653;SDS011;66556;52.008;5.432;2023-05-02T09:40:56;9.9;;;1.9;;
59653;SDS011;66556;52.008;5.432;2023-05-02T09:42:32;7.1;;;1.7;;
59653;SDS011;66556;52.008;5.432;2023-05-02T09:45:54;9.1;;;1.6;;
59653;SDS011;66556;52.008;5.432;2023-05-02T09:47:32;8.0;;;2.0;;
59653;SDS011;66556;52.008;5.432;2023-05-02T09:49:08;8.0;;;1.7;;
59653;SDS011;66556;52.008;5.432;2023-05-02T09:50:44;6.0;;;1.8;;
59653;SDS011;66556;52.008;5.432;2023-05-02T09:53:56;8.31;;;1.8;;
59653;SDS011;66556;52.008;5.432;2023-05-02T09:55:32;6.3;;;1.7;;
59653;SDS011;66556;52.008;5.432;2023-05-02T09:57:08;5.6;;;1.8;;
59653;SDS011;66556;52.008;5.432;2023-05-02T10:00:21;6.4;;;1.8;;
59653;SDS011;66556;52.008;5.432;2023-05-02T10:01:57;6.4;;;1.7;;
59653;SDS011;66556;52.008;5.432;2023-05-02T10:03:36;7.8;;;2.1;;
59653;SDS011;66556;52.008;5.432;2023-05-02T10:06:54;7.8;;;1.7;;
59653;SDS011;66556;52.008;5.432;2023-05-02T10:08:31;14.0;;;2.5;;
59653;SDS011;66556;52.008;5.432;2023-05-02T10:10:08;5.5;;;1.4;;
59653;SDS011;66556;52.008;5.432;2023-05-02T10:11:50;7.1;;;1.8;;
59653;SDS011;66556;52.008;5.432;2023-05-02T10:15:08;6.1;;;1.7;;
59653;SDS011;66556;52.008;5.432;2023-05-02T10:16:51;6.5;;;2.1;;
59653;SDS011;66556;52.008;5.432;2023-05-02T10:18:38;3.6;;;1.4;;
59653;SDS011;66556;52.008;5.432;2023-05-02T10:20:18;6.7;;;1.9;;
59653;SDS011;66556;52.008;5.432;2023-05-02T10:23:40;9.81;;;1.6;;
59653;SDS011;66556;52.008;5.432;2023-05-02T10:25:18;8.1;;;1.7;;
59653;SDS011;66556;52.008;5.432;2023-05-02T10:26:55;5.9;;;2.0;;
59653;SDS011;66556;52.008;5.432;2023-05-02T10:28:31;8.31;;;1.8;;
59653;SDS011;66556;52.008;5.432;2023-05-02T10:31:48;7.5;;;1.7;;
59653;SDS011;66556;52.008;5.432;2023-05-02T10:33:24;7.1;;;2.0;;
59653;SDS011;66556;52.008;5.432;2023-05-02T10:35:02;14.0;;;2.4;;
59653;SDS011;66556;52.008;5.432;2023-05-02T10:38:18;7.7;;;1.7;;
59653;SDS011;66556;52.008;5.432;2023-05-02T10:39:55;6.2;;;2.1;;
59653;SDS011;66556;52.008;5.432;2023-05-02T10:41:32;6.8;;;1.8;;
59653;SDS011;66556;52.008;5.432;2023-05-02T10:43:12;6.4;;;2.21;;
59653;SDS011;66556;52.008;5.432;2023-05-02T10:46:29;8.0;;;2.0;;
59653;SDS011;66556;52.008;5.432;2023-05-02T10:48:15;10.1;;;2.5;;
59653;SDS011;66556;52.008;5.432;2023-05-02T10:49:54;8.0;;;2.1;;
59653;SDS011;66556;52.008;5.432;2023-05-02T10:51:31;11.5;;;2.21;;
59653;SDS011;66556;52.008;5.432;2023-05-02T10:55:14;8.4;;;2.0;;
59653;SDS011;66556;52.008;5.432;2023-05-02T10:57:00;7.3;;;2.0;;
59653;SDS011;66556;52.008;5.432;2023-05-02T10:58:41;16.2;;;2.0;;
59653;SDS011;66556;52.008;5.432;2023-05-02T11:00:20;7.9;;;1.8;;
59653;SDS011;66556;52.008;5.432;2023-05-02T11:01:57;9.0;;;2.4;;
59653;SDS011;66556;52.008;5.432;2023-05-02T11:06:16;8.0;;;2.8;;
59653;SDS011;66556;52.008;5.432;2023-05-02T11:08:29;7.2;;;2.1;;
59653;SDS011;66556;52.008;5.432;2023-05-02T11:10:37;5.9;;;2.1;;
59653;SDS011;66556;52.008;5.432;2023-05-02T11:12:41;6.0;;;2.21;;
59653;SDS011;66556;52.008;5.432;2023-05-02T11:14:41;9.1;;;2.21;;
59653;SDS011;66556;52.008;5.432;2023-05-02T11:16:19;9.71;;;2.21;;
59653;SDS011;66556;52.008;5.432;2023-05-02T11:17:57;8.5;;;2.0;;
59653;SDS011;66556;52.008;5.432;2023-05-02T11:22:29;5.0;;;1.8;;
59653;SDS011;66556;52.008;5.432;2023-05-02T11:24:38;10.5;;;2.5;;
59653;SDS011;66556;52.008;5.432;2023-05-02T11:26:19;9.21;;;2.31;;
59653;SDS011;66556;52.008;5.432;2023-05-02T11:27:59;8.81;;;2.1;;
59653;SDS011;66556;52.008;5.432;2023-05-02T11:29:51;6.8;;;2.0;;
59653;SDS011;66556;52.008;5.432;2023-05-02T11:32:00;12.5;;;2.1;;
59653;SDS011;66556;52.008;5.432;2023-05-02T11:33:36;8.2;;;2.0;;
59653;SDS011;66556;52.008;5.432;2023-05-02T11:36:52;6.3;;;2.0;;
59653;SDS011;66556;52.008;5.432;2023-05-02T11:38:34;8.2;;;2.4;;
59653;SDS011;66556;52.008;5.432;2023-05-02T11:40:13;7.8;;;2.0;;
59653;SDS011;66556;52.008;5.432;2023-05-02T11:41:50;8.71;;;2.0;;
59653;SDS011;66556;52.008;5.432;2023-05-02T11:45:04;8.81;;;2.21;;
59653;SDS011;66556;52.008;5.432;2023-05-02T11:46:40;9.4;;;2.1;;
59653;SDS011;66556;52.008;5.432;2023-05-02T11:48:19;5.7;;;1.9;;
59653;SDS011;66556;52.008;5.432;2023-05-02T11:49:57;8.0;;;2.0;;
59653;SDS011;66556;52.008;5.432;2023-05-02T11:53:09;7.8;;;2.1;;
59653;SDS011;66556;52.008;5.432;2023-05-02T11:54:46;11.8;;;2.5;;
59653;SDS011;66556;52.008;5.432;2023-05-02T11:56:23;11.7;;;2.5;;
59653;SDS011;66556;52.008;5.432;2023-05-02T11:59:48;6.6;;;2.21;;
59653;SDS011;66556;52.008;5.432;2023-05-02T12:01:24;6.8;;;2.4;;
59653;SDS011;66556;52.008;5.432;2023-05-02T12:03:00;8.9;;;2.6;;
59653;SDS011;66556;52.008;5.432;2023-05-02T12:04:40;7.6;;;2.21;;
59653;SDS011;66556;52.008;5.432;2023-05-02T12:09:30;8.71;;;2.21;;
59653;SDS011;66556;52.008;5.432;2023-05-02T12:11:06;9.0;;;2.9;;
59653;SDS011;66556;52.008;5.432;2023-05-02T12:14:27;8.4;;;2.31;;
59653;SDS011;66556;52.008;5.432;2023-05-02T12:16:04;10.8;;;2.7;;
59653;SDS011;66556;52.008;5.432;2023-05-02T12:17:42;8.0;;;2.6;;
59653;SDS011;66556;52.008;5.432;2023-05-02T12:19:23;11.0;;;2.21;;
59653;SDS011;66556;52.008;5.432;2023-05-02T12:22:35;8.71;;;2.31;;
59653;SDS011;66556;52.008;5.432;2023-05-02T12:24:13;11.5;;;2.6;;
59653;SDS011;66556;52.008;5.432;2023-05-02T12:25:50;10.7;;;2.9;;
59653;SDS011;66556;52.008;5.432;2023-05-02T12:29:02;9.9;;;2.8;;
59653;SDS011;66556;52.008;5.432;2023-05-02T12:30:39;8.1;;;3.0;;
59653;SDS011;66556;52.008;5.432;2023-05-02T12:32:26;10.4;;;3.0;;
59653;SDS011;66556;52.008;5.432;2023-05-02T12:34:03;9.71;;;2.8;;
59653;SDS011;66556;52.008;5.432;2023-05-02T12:37:20;8.4;;;2.5;;
59653;SDS011;66556;52.008;5.432;2023-05-02T12:38:58;10.0;;;2.9;;
59653;SDS011;66556;52.008;5.432;2023-05-02T12:40:35;9.4;;;3.0;;
59653;SDS011;66556;52.008;5.432;2023-05-02T12:43:49;12.5;;;2.9;;
59653;SDS011;66556;52.008;5.432;2023-05-02T12:45:26;8.2;;;2.9;;
59653;SDS011;66556;52.008;5.432;2023-05-02T12:47:02;8.81;;;2.6;;
59653;SDS011;66556;52.008;5.432;2023-05-02T12:48:38;10.21;;;2.9;;
59653;SDS011;66556;52.008;5.432;2023-05-02T12:51:52;10.4;;;2.9;;
59653;SDS011;66556;52.008;5.432;2023-05-02T12:53:44;12.9;;;3.0;;